sensor_id;sensor_type;location;lat;lon;timestamp;P1;durP1;ratioP1;P2;durP2;ratioP2
36291;SDS011;22327;51.208;6.418;2023-04-25T00:00:20;14.93;;;4.13;;
36291;SDS011;22327;51.208;6.418;2023-04-25T00:02:46;10.95;;;4.70;;
36291;SDS011;22327;51.208;6.418;2023-04-25T00:05:11;16.92;;;5.70;;
36291;SDS011;22327;51.208;6.418;2023-04-25T00:07:39;16.25;;;4.70;;
36291;SDS011;22327;51.208;6.418;2023-04-25T00:10:07;9.23;;;4.10;;
36291;SDS011;22327;51.208;6.418;2023-04-25T00:12:33;12.43;;;5.13;;
36291;SDS011;22327;51.208;6.418;2023-04-25T00:14:59;14.20;;;4.85;;
36291;SDS011;22327;51.208;6.418;2023-04-25T00:17:24;7.30;;;3.90;;
36291;SDS011;22327;51.208;6.418;2023-04-25T00:19:51;8.85;;;4.00;;
36291;SDS011;22327;51.208;6.418;2023-04-25T00:22:17;11.05;;;4.82;;
36291;SDS011;22327;51.208;6.418;2023-04-25T00:24:43;9.05;;;4.22;;
36291;SDS011;22327;51.208;6.418;2023-04-25T00:27:08;11.65;;;3.95;;
36291;SDS011;22327;51.208;6.418;2023-04-25T00:29:34;9.45;;;3.58;;
36291;SDS011;22327;51.208;6.418;2023-04-25T00:31:59;12.35;;;4.28;;
36291;SDS011;22327;51.208;6.418;2023-04-25T00:34:25;15.23;;;3.70;;
36291;SDS011;22327;51.208;6.418;2023-04-25T00:36:51;11.82;;;4.32;;
36291;SDS011;22327;51.208;6.418;2023-04-25T00:39:16;9.98;;;3.88;;
36291;SDS011;22327;51.208;6.418;2023-04-25T00:41:42;13.80;;;4.28;;
36291;SDS011;22327;51.208;6.418;2023-04-25T00:44:09;13.20;;;4.10;;
36291;SDS011;22327;51.208;6.418;2023-04-25T00:46:36;13.63;;;5.03;;
36291;SDS011;22327;51.208;6.418;2023-04-25T00:49:03;14.57;;;4.68;;
36291;SDS011;22327;51.208;6.418;2023-04-25T00:51:29;7.38;;;3.58;;
36291;SDS011;22327;51.208;6.418;2023-04-25T00:53:55;11.27;;;3.90;;
36291;SDS011;22327;51.208;6.418;2023-04-25T00:56:21;9.35;;;3.65;;
36291;SDS011;22327;51.208;6.418;2023-04-25T00:58:47;10.40;;;4.25;;
36291;SDS011;22327;51.208;6.418;2023-04-25T01:01:13;6.65;;;3.63;;
36291;SDS011;22327;51.208;6.418;2023-04-25T01:03:39;12.27;;;3.67;;
36291;SDS011;22327;51.208;6.418;2023-04-25T01:06:06;12.40;;;3.63;;
36291;SDS011;22327;51.208;6.418;2023-04-25T01:08:33;11.73;;;3.85;;
36291;SDS011;22327;51.208;6.418;2023-04-25T01:10:59;11.52;;;3.75;;
36291;SDS011;22327;51.208;6.418;2023-04-25T01:13:24;10.20;;;3.70;;
36291;SDS011;22327;51.208;6.418;2023-04-25T01:15:50;9.88;;;4.30;;
36291;SDS011;22327;51.208;6.418;2023-04-25T01:18:15;9.57;;;3.78;;
36291;SDS011;22327;51.208;6.418;2023-04-25T01:20:41;9.40;;;4.25;;
36291;SDS011;22327;51.208;6.418;2023-04-25T01:23:08;10.27;;;3.95;;
36291;SDS011;22327;51.208;6.418;2023-04-25T01:25:34;10.32;;;3.80;;
36291;SDS011;22327;51.208;6.418;2023-04-25T01:28:00;7.35;;;3.55;;
36291;SDS011;22327;51.208;6.418;2023-04-25T01:30:26;12.38;;;3.97;;
36291;SDS011;22327;51.208;6.418;2023-04-25T01:32:53;10.73;;;4.10;;
36291;SDS011;22327;51.208;6.418;2023-04-25T01:35:23;14.45;;;3.75;;
36291;SDS011;22327;51.208;6.418;2023-04-25T01:37:50;12.10;;;3.70;;
36291;SDS011;22327;51.208;6.418;2023-04-25T01:40:16;9.25;;;4.07;;
36291;SDS011;22327;51.208;6.418;2023-04-25T01:42:44;8.63;;;3.70;;
36291;SDS011;22327;51.208;6.418;2023-04-25T01:45:10;9.32;;;4.03;;
36291;SDS011;22327;51.208;6.418;2023-04-25T01:47:36;14.98;;;4.30;;
36291;SDS011;22327;51.208;6.418;2023-04-25T01:50:02;10.60;;;4.07;;
36291;SDS011;22327;51.208;6.418;2023-04-25T01:52:29;12.10;;;4.25;;
36291;SDS011;22327;51.208;6.418;2023-04-25T01:54:55;9.95;;;4.75;;
36291;SDS011;22327;51.208;6.418;2023-04-25T01:57:22;12.52;;;4.45;;
36291;SDS011;22327;51.208;6.418;2023-04-25T01:59:48;10.40;;;4.95;;
36291;SDS011;22327;51.208;6.418;2023-04-25T02:02:14;12.65;;;4.45;;
36291;SDS011;22327;51.208;6.418;2023-04-25T02:04:40;13.82;;;4.03;;
36291;SDS011;22327;51.208;6.418;2023-04-25T02:07:05;11.18;;;4.22;;
36291;SDS011;22327;51.208;6.418;2023-04-25T02:09:31;11.70;;;5.78;;
36291;SDS011;22327;51.208;6.418;2023-04-25T02:11:57;11.68;;;4.55;;
36291;SDS011;22327;51.208;6.418;2023-04-25T02:14:23;12.07;;;4.32;;
36291;SDS011;22327;51.208;6.418;2023-04-25T02:16:48;14.50;;;4.60;;
36291;SDS011;22327;51.208;6.418;2023-04-25T02:19:14;9.27;;;4.40;;
36291;SDS011;22327;51.208;6.418;2023-04-25T02:21:39;10.45;;;4.30;;
36291;SDS011;22327;51.208;6.418;2023-04-25T02:24:05;10.77;;;4.47;;
36291;SDS011;22327;51.208;6.418;2023-04-25T02:26:31;14.75;;;4.78;;
36291;SDS011;22327;51.208;6.418;2023-04-25T02:28:56;12.13;;;4.20;;
36291;SDS011;22327;51.208;6.418;2023-04-25T02:31:22;10.90;;;4.47;;
36291;SDS011;22327;51.208;6.418;2023-04-25T02:33:48;11.55;;;4.93;;
36291;SDS011;22327;51.208;6.418;2023-04-25T02:36:13;10.77;;;4.68;;
36291;SDS011;22327;51.208;6.418;2023-04-25T02:38:40;14.95;;;6.07;;
36291;SDS011;22327;51.208;6.418;2023-04-25T02:41:05;10.23;;;4.40;;
36291;SDS011;22327;51.208;6.418;2023-04-25T02:43:31;9.43;;;4.80;;
36291;SDS011;22327;51.208;6.418;2023-04-25T02:45:56;12.00;;;4.28;;
36291;SDS011;22327;51.208;6.418;2023-04-25T02:48:22;10.38;;;4.55;;
36291;SDS011;22327;51.208;6.418;2023-04-25T02:50:47;12.20;;;5.57;;
36291;SDS011;22327;51.208;6.418;2023-04-25T02:53:13;10.75;;;4.15;;
36291;SDS011;22327;51.208;6.418;2023-04-25T02:55:38;10.27;;;4.40;;
36291;SDS011;22327;51.208;6.418;2023-04-25T02:58:04;7.93;;;3.90;;
36291;SDS011;22327;51.208;6.418;2023-04-25T03:00:30;9.20;;;4.75;;
36291;SDS011;22327;51.208;6.418;2023-04-25T03:02:56;11.10;;;4.45;;
36291;SDS011;22327;51.208;6.418;2023-04-25T03:05:21;11.70;;;4.22;;
36291;SDS011;22327;51.208;6.418;2023-04-25T03:07:47;12.68;;;4.70;;
36291;SDS011;22327;51.208;6.418;2023-04-25T03:10:12;11.32;;;4.95;;
36291;SDS011;22327;51.208;6.418;2023-04-25T03:12:38;18.27;;;5.65;;
36291;SDS011;22327;51.208;6.418;2023-04-25T03:15:04;14.85;;;5.72;;
36291;SDS011;22327;51.208;6.418;2023-04-25T03:17:30;13.70;;;6.00;;
36291;SDS011;22327;51.208;6.418;2023-04-25T03:19:56;12.40;;;6.25;;
36291;SDS011;22327;51.208;6.418;2023-04-25T03:22:22;13.43;;;5.60;;
36291;SDS011;22327;51.208;6.418;2023-04-25T03:24:48;12.18;;;5.88;;
36291;SDS011;22327;51.208;6.418;2023-04-25T03:27:14;19.17;;;7.07;;
36291;SDS011;22327;51.208;6.418;2023-04-25T03:29:40;14.65;;;6.90;;
36291;SDS011;22327;51.208;6.418;2023-04-25T03:32:06;16.10;;;6.80;;
36291;SDS011;22327;51.208;6.418;2023-04-25T03:34:31;20.80;;;6.97;;
36291;SDS011;22327;51.208;6.418;2023-04-25T03:36:57;14.50;;;6.45;;
36291;SDS011;22327;51.208;6.418;2023-04-25T03:39:22;10.50;;;5.28;;
36291;SDS011;22327;51.208;6.418;2023-04-25T03:41:48;14.77;;;5.70;;
36291;SDS011;22327;51.208;6.418;2023-04-25T03:44:13;15.68;;;6.03;;
36291;SDS011;22327;51.208;6.418;2023-04-25T03:46:39;10.50;;;5.22;;
36291;SDS011;22327;51.208;6.418;2023-04-25T03:49:05;13.07;;;5.10;;
36291;SDS011;22327;51.208;6.418;2023-04-25T03:51:30;17.13;;;6.15;;
36291;SDS011;22327;51.208;6.418;2023-04-25T03:53:56;22.23;;;5.63;;
36291;SDS011;22327;51.208;6.418;2023-04-25T03:56:21;16.52;;;5.38;;
36291;SDS011;22327;51.208;6.418;2023-04-25T03:58:47;17.52;;;7.35;;
36291;SDS011;22327;51.208;6.418;2023-04-25T04:01:13;14.55;;;5.15;;
36291;SDS011;22327;51.208;6.418;2023-04-25T04:03:38;16.23;;;5.20;;
36291;SDS011;22327;51.208;6.418;2023-04-25T04:06:04;14.38;;;5.13;;
36291;SDS011;22327;51.208;6.418;2023-04-25T04:08:31;18.13;;;6.20;;
36291;SDS011;22327;51.208;6.418;2023-04-25T04:10:57;16.13;;;5.30;;
36291;SDS011;22327;51.208;6.418;2023-04-25T04:13:25;16.25;;;5.75;;
36291;SDS011;22327;51.208;6.418;2023-04-25T04:15:51;13.52;;;5.05;;
36291;SDS011;22327;51.208;6.418;2023-04-25T04:18:17;15.13;;;5.20;;
36291;SDS011;22327;51.208;6.418;2023-04-25T04:20:42;14.25;;;5.10;;
36291;SDS011;22327;51.208;6.418;2023-04-25T04:23:08;12.57;;;5.78;;
36291;SDS011;22327;51.208;6.418;2023-04-25T04:25:33;16.27;;;6.32;;
36291;SDS011;22327;51.208;6.418;2023-04-25T04:27:59;14.30;;;5.22;;
36291;SDS011;22327;51.208;6.418;2023-04-25T04:30:26;15.90;;;5.40;;
36291;SDS011;22327;51.208;6.418;2023-04-25T04:32:54;16.50;;;5.72;;
36291;SDS011;22327;51.208;6.418;2023-04-25T04:35:20;18.45;;;5.65;;
36291;SDS011;22327;51.208;6.418;2023-04-25T04:37:46;13.85;;;5.07;;
36291;SDS011;22327;51.208;6.418;2023-04-25T04:40:12;18.48;;;5.72;;
36291;SDS011;22327;51.208;6.418;2023-04-25T04:42:40;17.13;;;5.60;;
36291;SDS011;22327;51.208;6.418;2023-04-25T04:45:07;12.85;;;5.03;;
36291;SDS011;22327;51.208;6.418;2023-04-25T04:47:33;18.95;;;5.15;;
36291;SDS011;22327;51.208;6.418;2023-04-25T04:50:01;16.42;;;5.25;;
36291;SDS011;22327;51.208;6.418;2023-04-25T04:52:27;13.23;;;4.85;;
36291;SDS011;22327;51.208;6.418;2023-04-25T04:54:53;17.83;;;4.78;;
36291;SDS011;22327;51.208;6.418;2023-04-25T04:57:20;15.50;;;5.15;;
36291;SDS011;22327;51.208;6.418;2023-04-25T04:59:45;15.13;;;4.63;;
36291;SDS011;22327;51.208;6.418;2023-04-25T05:02:11;9.90;;;4.55;;
36291;SDS011;22327;51.208;6.418;2023-04-25T05:04:37;11.02;;;4.00;;
36291;SDS011;22327;51.208;6.418;2023-04-25T05:07:02;14.10;;;4.25;;
36291;SDS011;22327;51.208;6.418;2023-04-25T05:09:28;9.20;;;3.35;;
36291;SDS011;22327;51.208;6.418;2023-04-25T05:11:53;14.65;;;4.65;;
36291;SDS011;22327;51.208;6.418;2023-04-25T05:14:18;7.07;;;3.38;;
36291;SDS011;22327;51.208;6.418;2023-04-25T05:16:44;14.35;;;4.18;;
36291;SDS011;22327;51.208;6.418;2023-04-25T05:19:10;8.00;;;4.30;;
36291;SDS011;22327;51.208;6.418;2023-04-25T05:21:35;11.95;;;3.80;;
36291;SDS011;22327;51.208;6.418;2023-04-25T05:24:01;10.60;;;3.85;;
36291;SDS011;22327;51.208;6.418;2023-04-25T05:26:27;12.23;;;4.13;;
36291;SDS011;22327;51.208;6.418;2023-04-25T05:28:56;11.88;;;4.40;;
36291;SDS011;22327;51.208;6.418;2023-04-25T05:31:22;13.00;;;4.47;;
36291;SDS011;22327;51.208;6.418;2023-04-25T05:33:47;12.60;;;3.92;;
36291;SDS011;22327;51.208;6.418;2023-04-25T05:36:13;11.60;;;3.90;;
36291;SDS011;22327;51.208;6.418;2023-04-25T05:38:38;12.75;;;4.15;;
36291;SDS011;22327;51.208;6.418;2023-04-25T05:41:04;11.25;;;3.55;;
36291;SDS011;22327;51.208;6.418;2023-04-25T05:43:29;10.80;;;3.45;;
36291;SDS011;22327;51.208;6.418;2023-04-25T05:45:55;15.77;;;4.10;;
36291;SDS011;22327;51.208;6.418;2023-04-25T05:48:20;11.10;;;4.35;;
36291;SDS011;22327;51.208;6.418;2023-04-25T05:50:46;10.35;;;3.60;;
36291;SDS011;22327;51.208;6.418;2023-04-25T05:53:11;11.23;;;3.80;;
36291;SDS011;22327;51.208;6.418;2023-04-25T05:55:37;8.95;;;3.60;;
36291;SDS011;22327;51.208;6.418;2023-04-25T05:58:04;8.55;;;3.45;;
36291;SDS011;22327;51.208;6.418;2023-04-25T06:00:31;13.32;;;4.18;;
36291;SDS011;22327;51.208;6.418;2023-04-25T06:02:56;8.88;;;3.20;;
36291;SDS011;22327;51.208;6.418;2023-04-25T06:05:22;12.10;;;3.20;;
36291;SDS011;22327;51.208;6.418;2023-04-25T06:07:47;8.05;;;3.05;;
36291;SDS011;22327;51.208;6.418;2023-04-25T06:10:13;7.40;;;3.38;;
36291;SDS011;22327;51.208;6.418;2023-04-25T06:12:38;9.77;;;3.60;;
36291;SDS011;22327;51.208;6.418;2023-04-25T06:15:05;11.63;;;3.67;;
36291;SDS011;22327;51.208;6.418;2023-04-25T06:17:31;14.13;;;4.22;;
36291;SDS011;22327;51.208;6.418;2023-04-25T06:19:56;8.85;;;2.97;;
36291;SDS011;22327;51.208;6.418;2023-04-25T06:22:22;8.93;;;3.17;;
36291;SDS011;22327;51.208;6.418;2023-04-25T06:24:47;10.88;;;3.55;;
36291;SDS011;22327;51.208;6.418;2023-04-25T06:27:13;8.00;;;3.25;;
36291;SDS011;22327;51.208;6.418;2023-04-25T06:29:38;8.60;;;3.80;;
36291;SDS011;22327;51.208;6.418;2023-04-25T06:32:04;6.38;;;3.28;;
36291;SDS011;22327;51.208;6.418;2023-04-25T06:34:29;12.50;;;3.83;;
36291;SDS011;22327;51.208;6.418;2023-04-25T06:36:55;10.70;;;3.22;;
36291;SDS011;22327;51.208;6.418;2023-04-25T06:39:21;8.73;;;2.80;;
36291;SDS011;22327;51.208;6.418;2023-04-25T06:41:48;15.30;;;3.30;;
36291;SDS011;22327;51.208;6.418;2023-04-25T06:44:14;11.60;;;3.97;;
36291;SDS011;22327;51.208;6.418;2023-04-25T06:46:40;6.75;;;2.85;;
36291;SDS011;22327;51.208;6.418;2023-04-25T06:49:05;8.90;;;3.10;;
36291;SDS011;22327;51.208;6.418;2023-04-25T06:51:31;8.95;;;2.95;;
36291;SDS011;22327;51.208;6.418;2023-04-25T06:53:57;7.50;;;2.65;;
36291;SDS011;22327;51.208;6.418;2023-04-25T06:56:22;8.15;;;3.03;;
36291;SDS011;22327;51.208;6.418;2023-04-25T06:58:48;13.18;;;3.47;;
36291;SDS011;22327;51.208;6.418;2023-04-25T07:01:14;13.13;;;2.95;;
36291;SDS011;22327;51.208;6.418;2023-04-25T07:03:40;10.60;;;3.50;;
36291;SDS011;22327;51.208;6.418;2023-04-25T07:06:05;8.85;;;2.35;;
36291;SDS011;22327;51.208;6.418;2023-04-25T07:08:31;5.25;;;2.30;;
36291;SDS011;22327;51.208;6.418;2023-04-25T07:10:57;8.55;;;2.47;;
36291;SDS011;22327;51.208;6.418;2023-04-25T07:13:22;7.10;;;2.40;;
36291;SDS011;22327;51.208;6.418;2023-04-25T07:15:48;6.47;;;2.60;;
36291;SDS011;22327;51.208;6.418;2023-04-25T07:18:13;9.45;;;2.13;;
36291;SDS011;22327;51.208;6.418;2023-04-25T07:20:39;7.70;;;2.05;;
36291;SDS011;22327;51.208;6.418;2023-04-25T07:23:04;6.30;;;2.05;;
36291;SDS011;22327;51.208;6.418;2023-04-25T07:25:30;5.25;;;2.00;;
36291;SDS011;22327;51.208;6.418;2023-04-25T07:27:56;9.13;;;2.72;;
36291;SDS011;22327;51.208;6.418;2023-04-25T07:30:21;5.97;;;2.15;;
36291;SDS011;22327;51.208;6.418;2023-04-25T07:32:47;6.65;;;1.73;;
36291;SDS011;22327;51.208;6.418;2023-04-25T07:35:13;5.97;;;2.03;;
36291;SDS011;22327;51.208;6.418;2023-04-25T07:37:39;6.78;;;1.90;;
36291;SDS011;22327;51.208;6.418;2023-04-25T07:40:05;5.90;;;1.95;;
36291;SDS011;22327;51.208;6.418;2023-04-25T07:42:31;4.55;;;1.50;;
36291;SDS011;22327;51.208;6.418;2023-04-25T07:44:57;6.72;;;1.67;;
36291;SDS011;22327;51.208;6.418;2023-04-25T07:47:22;5.65;;;1.80;;
36291;SDS011;22327;51.208;6.418;2023-04-25T07:49:48;3.22;;;1.25;;
36291;SDS011;22327;51.208;6.418;2023-04-25T07:52:13;6.25;;;1.73;;
36291;SDS011;22327;51.208;6.418;2023-04-25T07:54:39;5.00;;;1.45;;
36291;SDS011;22327;51.208;6.418;2023-04-25T07:57:05;6.35;;;1.80;;
36291;SDS011;22327;51.208;6.418;2023-04-25T07:59:33;6.78;;;1.90;;
36291;SDS011;22327;51.208;6.418;2023-04-25T08:01:59;5.80;;;2.05;;
36291;SDS011;22327;51.208;6.418;2023-04-25T08:04:25;7.78;;;2.40;;
36291;SDS011;22327;51.208;6.418;2023-04-25T08:06:51;5.05;;;1.30;;
36291;SDS011;22327;51.208;6.418;2023-04-25T08:09:18;4.20;;;1.63;;
36291;SDS011;22327;51.208;6.418;2023-04-25T08:11:44;5.90;;;2.00;;
36291;SDS011;22327;51.208;6.418;2023-04-25T08:14:11;6.07;;;1.55;;
36291;SDS011;22327;51.208;6.418;2023-04-25T08:16:37;7.07;;;2.03;;
36291;SDS011;22327;51.208;6.418;2023-04-25T08:19:02;5.53;;;2.05;;
36291;SDS011;22327;51.208;6.418;2023-04-25T08:21:28;6.18;;;1.67;;
36291;SDS011;22327;51.208;6.418;2023-04-25T08:23:54;7.55;;;1.88;;
36291;SDS011;22327;51.208;6.418;2023-04-25T08:26:20;6.18;;;1.33;;
36291;SDS011;22327;51.208;6.418;2023-04-25T08:28:45;4.93;;;1.73;;
36291;SDS011;22327;51.208;6.418;2023-04-25T08:31:11;5.70;;;1.50;;
36291;SDS011;22327;51.208;6.418;2023-04-25T08:33:37;7.45;;;1.52;;
36291;SDS011;22327;51.208;6.418;2023-04-25T08:36:03;3.95;;;1.30;;
36291;SDS011;22327;51.208;6.418;2023-04-25T08:38:28;3.80;;;1.20;;
36291;SDS011;22327;51.208;6.418;2023-04-25T08:40:54;5.30;;;1.08;;
36291;SDS011;22327;51.208;6.418;2023-04-25T08:43:21;4.40;;;1.60;;
36291;SDS011;22327;51.208;6.418;2023-04-25T08:45:48;6.28;;;1.70;;
36291;SDS011;22327;51.208;6.418;2023-04-25T08:48:15;3.25;;;1.10;;
36291;SDS011;22327;51.208;6.418;2023-04-25T08:50:51;4.00;;;1.00;;
36291;SDS011;22327;51.208;6.418;2023-04-25T08:53:22;4.40;;;1.10;;
36291;SDS011;22327;51.208;6.418;2023-04-25T08:55:52;7.47;;;1.75;;
36291;SDS011;22327;51.208;6.418;2023-04-25T08:58:19;6.30;;;1.50;;
36291;SDS011;22327;51.208;6.418;2023-04-25T09:00:46;4.68;;;1.20;;
36291;SDS011;22327;51.208;6.418;2023-04-25T09:03:12;6.75;;;1.67;;
36291;SDS011;22327;51.208;6.418;2023-04-25T09:05:39;6.07;;;1.63;;
36291;SDS011;22327;51.208;6.418;2023-04-25T09:08:05;6.65;;;1.35;;
36291;SDS011;22327;51.208;6.418;2023-04-25T09:10:31;6.93;;;1.55;;
36291;SDS011;22327;51.208;6.418;2023-04-25T09:13:04;3.05;;;1.25;;
36291;SDS011;22327;51.208;6.418;2023-04-25T09:18:22;4.45;;;1.63;;
36291;SDS011;22327;51.208;6.418;2023-04-25T09:20:50;4.38;;;1.20;;
36291;SDS011;22327;51.208;6.418;2023-04-25T09:23:18;5.85;;;1.50;;
36291;SDS011;22327;51.208;6.418;2023-04-25T09:25:46;4.00;;;1.77;;
36291;SDS011;22327;51.208;6.418;2023-04-25T09:28:22;6.05;;;1.45;;
36291;SDS011;22327;51.208;6.418;2023-04-25T09:30:53;2.08;;;1.63;;
36291;SDS011;22327;51.208;6.418;2023-04-25T09:33:21;5.57;;;1.90;;
36291;SDS011;22327;51.208;6.418;2023-04-25T09:36:01;4.03;;;1.23;;
36291;SDS011;22327;51.208;6.418;2023-04-25T09:38:29;3.63;;;1.15;;
36291;SDS011;22327;51.208;6.418;2023-04-25T09:41:06;4.43;;;1.02;;
36291;SDS011;22327;51.208;6.418;2023-04-25T09:43:32;3.05;;;1.23;;
36291;SDS011;22327;51.208;6.418;2023-04-25T09:45:57;3.30;;;1.20;;
36291;SDS011;22327;51.208;6.418;2023-04-25T09:48:24;3.13;;;1.60;;
36291;SDS011;22327;51.208;6.418;2023-04-25T09:53:36;7.55;;;1.50;;
36291;SDS011;22327;51.208;6.418;2023-04-25T09:56:03;5.20;;;1.20;;
36291;SDS011;22327;51.208;6.418;2023-04-25T09:58:30;5.13;;;1.13;;
36291;SDS011;22327;51.208;6.418;2023-04-25T10:00:58;4.30;;;0.90;;
36291;SDS011;22327;51.208;6.418;2023-04-25T10:03:26;4.18;;;0.90;;
36291;SDS011;22327;51.208;6.418;2023-04-25T10:05:55;4.70;;;0.70;;
36291;SDS011;22327;51.208;6.418;2023-04-25T10:08:24;4.72;;;1.10;;
36291;SDS011;22327;51.208;6.418;2023-04-25T10:10:54;7.07;;;1.30;;
36291;SDS011;22327;51.208;6.418;2023-04-25T10:13:20;2.95;;;0.98;;
36291;SDS011;22327;51.208;6.418;2023-04-25T10:15:45;3.58;;;1.00;;
36291;SDS011;22327;51.208;6.418;2023-04-25T10:18:12;4.20;;;1.00;;
36291;SDS011;22327;51.208;6.418;2023-04-25T10:20:38;3.85;;;1.40;;
36291;SDS011;22327;51.208;6.418;2023-04-25T10:23:06;3.88;;;1.10;;
36291;SDS011;22327;51.208;6.418;2023-04-25T10:25:38;3.38;;;1.08;;
36291;SDS011;22327;51.208;6.418;2023-04-25T10:28:05;3.78;;;1.30;;
36291;SDS011;22327;51.208;6.418;2023-04-25T10:30:31;6.07;;;1.30;;
36291;SDS011;22327;51.208;6.418;2023-04-25T10:32:56;5.15;;;2.15;;
36291;SDS011;22327;51.208;6.418;2023-04-25T10:35:25;8.73;;;3.97;;
36291;SDS011;22327;51.208;6.418;2023-04-25T10:40:31;3.92;;;1.55;;
36291;SDS011;22327;51.208;6.418;2023-04-25T10:43:33;6.82;;;1.60;;
36291;SDS011;22327;51.208;6.418;2023-04-25T10:46:13;6.00;;;1.98;;
36291;SDS011;22327;51.208;6.418;2023-04-25T10:48:50;5.47;;;2.00;;
36291;SDS011;22327;51.208;6.418;2023-04-25T10:51:20;3.22;;;1.58;;
36291;SDS011;22327;51.208;6.418;2023-04-25T10:56:20;5.78;;;2.55;;
36291;SDS011;22327;51.208;6.418;2023-04-25T10:58:55;3.80;;;1.80;;
36291;SDS011;22327;51.208;6.418;2023-04-25T11:07:00;4.95;;;1.48;;
36291;SDS011;22327;51.208;6.418;2023-04-25T11:09:28;4.57;;;2.03;;
36291;SDS011;22327;51.208;6.418;2023-04-25T11:11:55;4.63;;;1.55;;
36291;SDS011;22327;51.208;6.418;2023-04-25T11:14:21;3.25;;;1.35;;
36291;SDS011;22327;51.208;6.418;2023-04-25T11:16:52;4.25;;;1.42;;
36291;SDS011;22327;51.208;6.418;2023-04-25T11:19:19;4.88;;;1.52;;
36291;SDS011;22327;51.208;6.418;2023-04-25T11:21:45;7.53;;;1.67;;
36291;SDS011;22327;51.208;6.418;2023-04-25T11:24:11;6.05;;;1.70;;
36291;SDS011;22327;51.208;6.418;2023-04-25T11:26:36;5.07;;;1.20;;
36291;SDS011;22327;51.208;6.418;2023-04-25T11:29:02;6.55;;;1.77;;
36291;SDS011;22327;51.208;6.418;2023-04-25T11:31:28;6.55;;;2.55;;
36291;SDS011;22327;51.208;6.418;2023-04-25T11:33:56;4.43;;;1.83;;
36291;SDS011;22327;51.208;6.418;2023-04-25T11:36:23;4.28;;;1.48;;
36291;SDS011;22327;51.208;6.418;2023-04-25T11:38:50;5.53;;;1.30;;
36291;SDS011;22327;51.208;6.418;2023-04-25T11:41:16;4.90;;;1.45;;
36291;SDS011;22327;51.208;6.418;2023-04-25T11:43:42;5.60;;;1.35;;
36291;SDS011;22327;51.208;6.418;2023-04-25T11:46:08;2.70;;;1.40;;
36291;SDS011;22327;51.208;6.418;2023-04-25T11:48:41;3.88;;;1.23;;
36291;SDS011;22327;51.208;6.418;2023-04-25T11:51:08;4.88;;;1.50;;
36291;SDS011;22327;51.208;6.418;2023-04-25T11:53:34;3.30;;;1.67;;
36291;SDS011;22327;51.208;6.418;2023-04-25T11:56:00;4.13;;;1.40;;
36291;SDS011;22327;51.208;6.418;2023-04-25T11:58:26;2.75;;;1.17;;
36291;SDS011;22327;51.208;6.418;2023-04-25T12:00:52;2.72;;;0.90;;
36291;SDS011;22327;51.208;6.418;2023-04-25T12:03:18;3.88;;;1.02;;
36291;SDS011;22327;51.208;6.418;2023-04-25T12:05:44;1.95;;;1.02;;
36291;SDS011;22327;51.208;6.418;2023-04-25T12:08:13;1.52;;;0.77;;
36291;SDS011;22327;51.208;6.418;2023-04-25T12:10:40;4.00;;;1.05;;
36291;SDS011;22327;51.208;6.418;2023-04-25T12:13:24;2.10;;;0.82;;
36291;SDS011;22327;51.208;6.418;2023-04-25T12:15:51;3.28;;;1.02;;
36291;SDS011;22327;51.208;6.418;2023-04-25T12:18:19;2.28;;;0.70;;
36291;SDS011;22327;51.208;6.418;2023-04-25T12:20:46;2.10;;;0.90;;
36291;SDS011;22327;51.208;6.418;2023-04-25T12:23:11;2.83;;;0.93;;
36291;SDS011;22327;51.208;6.418;2023-04-25T12:25:37;2.08;;;0.90;;
36291;SDS011;22327;51.208;6.418;2023-04-25T12:28:38;2.33;;;0.93;;
36291;SDS011;22327;51.208;6.418;2023-04-25T12:33:31;2.95;;;0.73;;
36291;SDS011;22327;51.208;6.418;2023-04-25T12:36:01;2.20;;;0.95;;
36291;SDS011;22327;51.208;6.418;2023-04-25T12:38:36;2.17;;;0.82;;
36291;SDS011;22327;51.208;6.418;2023-04-25T12:41:03;2.45;;;1.02;;
36291;SDS011;22327;51.208;6.418;2023-04-25T12:43:29;1.80;;;0.70;;
36291;SDS011;22327;51.208;6.418;2023-04-25T12:45:55;3.03;;;0.60;;
36291;SDS011;22327;51.208;6.418;2023-04-25T12:48:21;1.15;;;0.65;;
36291;SDS011;22327;51.208;6.418;2023-04-25T12:50:48;1.40;;;0.60;;
36291;SDS011;22327;51.208;6.418;2023-04-25T12:53:15;1.98;;;0.50;;
36291;SDS011;22327;51.208;6.418;2023-04-25T12:55:41;1.33;;;0.60;;
36291;SDS011;22327;51.208;6.418;2023-04-25T12:58:07;1.52;;;0.60;;
36291;SDS011;22327;51.208;6.418;2023-04-25T13:00:32;3.22;;;0.80;;
36291;SDS011;22327;51.208;6.418;2023-04-25T13:02:58;1.67;;;0.60;;
36291;SDS011;22327;51.208;6.418;2023-04-25T13:05:24;2.53;;;0.98;;
36291;SDS011;22327;51.208;6.418;2023-04-25T13:07:50;1.27;;;0.65;;
36291;SDS011;22327;51.208;6.418;2023-04-25T13:10:16;3.80;;;0.90;;
36291;SDS011;22327;51.208;6.418;2023-04-25T13:12:42;5.72;;;0.93;;
36291;SDS011;22327;51.208;6.418;2023-04-25T13:15:08;2.33;;;0.95;;
36291;SDS011;22327;51.208;6.418;2023-04-25T13:17:36;1.90;;;0.60;;
36291;SDS011;22327;51.208;6.418;2023-04-25T13:20:03;2.10;;;0.60;;
36291;SDS011;22327;51.208;6.418;2023-04-25T13:22:31;1.70;;;0.75;;
36291;SDS011;22327;51.208;6.418;2023-04-25T13:24:56;1.58;;;0.82;;
36291;SDS011;22327;51.208;6.418;2023-04-25T13:27:22;2.83;;;0.80;;
36291;SDS011;22327;51.208;6.418;2023-04-25T13:29:47;4.53;;;1.00;;
36291;SDS011;22327;51.208;6.418;2023-04-25T13:32:13;4.28;;;1.02;;
36291;SDS011;22327;51.208;6.418;2023-04-25T13:34:38;4.00;;;0.90;;
36291;SDS011;22327;51.208;6.418;2023-04-25T13:37:04;6.75;;;1.15;;
36291;SDS011;22327;51.208;6.418;2023-04-25T13:39:30;3.05;;;1.20;;
36291;SDS011;22327;51.208;6.418;2023-04-25T13:41:55;3.45;;;1.10;;
36291;SDS011;22327;51.208;6.418;2023-04-25T13:44:21;4.60;;;1.52;;
36291;SDS011;22327;51.208;6.418;2023-04-25T13:46:46;4.82;;;1.40;;
36291;SDS011;22327;51.208;6.418;2023-04-25T13:49:12;3.28;;;0.88;;
36291;SDS011;22327;51.208;6.418;2023-04-25T13:51:37;1.58;;;0.70;;
36291;SDS011;22327;51.208;6.418;2023-04-25T13:54:03;3.85;;;0.90;;
36291;SDS011;22327;51.208;6.418;2023-04-25T13:56:29;2.50;;;1.13;;
36291;SDS011;22327;51.208;6.418;2023-04-25T13:58:55;2.92;;;0.80;;
36291;SDS011;22327;51.208;6.418;2023-04-25T14:01:21;3.25;;;1.70;;
36291;SDS011;22327;51.208;6.418;2023-04-25T14:03:47;3.15;;;1.00;;
36291;SDS011;22327;51.208;6.418;2023-04-25T14:06:12;3.72;;;1.00;;
36291;SDS011;22327;51.208;6.418;2023-04-25T14:08:38;2.13;;;0.93;;
36291;SDS011;22327;51.208;6.418;2023-04-25T14:11:04;2.10;;;0.80;;
36291;SDS011;22327;51.208;6.418;2023-04-25T14:13:29;4.68;;;0.90;;
36291;SDS011;22327;51.208;6.418;2023-04-25T14:15:55;1.88;;;0.98;;
36291;SDS011;22327;51.208;6.418;2023-04-25T14:18:20;2.78;;;1.35;;
36291;SDS011;22327;51.208;6.418;2023-04-25T14:20:47;4.72;;;1.30;;
36291;SDS011;22327;51.208;6.418;2023-04-25T14:23:13;1.92;;;1.05;;
36291;SDS011;22327;51.208;6.418;2023-04-25T14:25:38;3.22;;;1.10;;
36291;SDS011;22327;51.208;6.418;2023-04-25T14:28:05;6.63;;;1.50;;
36291;SDS011;22327;51.208;6.418;2023-04-25T14:30:31;3.70;;;1.25;;
36291;SDS011;22327;51.208;6.418;2023-04-25T14:32:56;2.10;;;1.20;;
36291;SDS011;22327;51.208;6.418;2023-04-25T14:35:22;3.38;;;1.10;;
36291;SDS011;22327;51.208;6.418;2023-04-25T14:37:47;3.08;;;0.80;;
36291;SDS011;22327;51.208;6.418;2023-04-25T14:40:13;3.85;;;0.93;;
36291;SDS011;22327;51.208;6.418;2023-04-25T14:42:40;2.17;;;0.50;;
36291;SDS011;22327;51.208;6.418;2023-04-25T14:45:06;2.58;;;0.60;;
36291;SDS011;22327;51.208;6.418;2023-04-25T14:47:33;3.03;;;0.65;;
36291;SDS011;22327;51.208;6.418;2023-04-25T14:49:59;1.55;;;0.70;;
36291;SDS011;22327;51.208;6.418;2023-04-25T14:52:26;2.65;;;1.35;;
36291;SDS011;22327;51.208;6.418;2023-04-25T14:54:52;1.50;;;0.52;;
36291;SDS011;22327;51.208;6.418;2023-04-25T14:57:18;1.60;;;0.63;;